createdAt,value
2019-02-27T00:01:58.786Z,99.90
2019-02-27T00:04:27.640Z,99.90
2019-02-27T00:06:56.483Z,99.90
2019-02-27T00:09:25.339Z,99.90
2019-02-27T00:11:54.344Z,99.90
2019-02-27T00:14:23.257Z,99.90
2019-02-27T00:16:52.281Z,99.90
2019-02-27T00:19:21.113Z,99.90
2019-02-27T00:21:49.914Z,99.90
2019-02-27T00:24:18.952Z,99.90
2019-02-27T00:26:47.793Z,99.90
2019-02-27T00:29:16.658Z,99.90
2019-02-27T00:31:46.427Z,99.90
2019-02-27T00:34:15.497Z,99.90
2019-02-27T00:36:45.191Z,99.90
2019-02-27T00:39:14.652Z,99.90
2019-02-27T00:41:46.031Z,99.90
2019-02-27T00:44:14.286Z,99.90
2019-02-27T00:46:43.956Z,99.90
2019-02-27T00:49:13.739Z,99.90
2019-02-27T00:51:44.704Z,99.90
2019-02-27T00:54:15.879Z,99.90
2019-02-27T00:56:45.564Z,99.90
2019-02-27T00:59:14.790Z,99.90
2019-02-27T01:01:47.240Z,99.90
2019-02-27T01:04:14.295Z,99.90
2019-02-27T01:06:45.056Z,99.90
2019-02-27T01:09:14.397Z,99.90
2019-02-27T01:11:43.241Z,99.90
2019-02-27T01:14:12.077Z,99.90
2019-02-27T01:16:40.965Z,99.90
2019-02-27T01:19:10.018Z,99.90
2019-02-27T01:21:39.044Z,99.90
2019-02-27T01:24:08.047Z,99.90
2019-02-27T01:26:36.995Z,99.90
2019-02-27T01:29:05.951Z,99.90
2019-02-27T01:31:35.075Z,99.90
2019-02-27T01:34:04.083Z,99.90
2019-02-27T01:36:32.947Z,99.90
2019-02-27T01:39:01.794Z,99.90
2019-02-27T01:41:30.758Z,99.90
2019-02-27T01:43:59.672Z,99.90
2019-02-27T01:46:28.687Z,99.90
2019-02-27T01:48:57.615Z,99.90
2019-02-27T01:51:28.256Z,99.90
2019-02-27T01:53:57.097Z,99.90
2019-02-27T01:56:28.915Z,99.90
2019-02-27T01:58:56.595Z,99.90
2019-02-27T02:01:29.838Z,99.90
2019-02-27T02:03:56.205Z,99.90
2019-02-27T02:06:25.029Z,99.90
2019-02-27T02:09:10.155Z,99.90
2019-02-27T02:11:41.124Z,99.90
2019-02-27T02:14:38.563Z,99.90
2019-02-27T02:17:33.246Z,99.90
2019-02-27T02:20:29.065Z,99.90
2019-02-27T02:23:47.930Z,99.90
2019-02-27T02:26:57.260Z,99.90
2019-02-27T02:30:05.934Z,99.90
2019-02-27T02:32:53.224Z,99.90
2019-02-27T02:35:54.055Z,99.90
2019-02-27T02:38:55.119Z,99.90
2019-02-27T02:41:46.345Z,99.90
2019-02-27T02:44:59.381Z,99.90
2019-02-27T02:47:43.034Z,99.90
2019-02-27T02:50:33.480Z,99.90
2019-02-27T02:53:27.945Z,99.90
2019-02-27T02:56:24.832Z,99.90
2019-02-27T02:59:28.956Z,99.90
2019-02-27T03:02:11.139Z,99.90
2019-02-27T03:05:23.309Z,99.90
2019-02-27T03:08:05.018Z,99.90
2019-02-27T03:10:48.431Z,99.90
2019-02-27T03:13:53.232Z,99.90
2019-02-27T03:16:41.458Z,99.90
2019-02-27T03:19:41.262Z,99.90
2019-02-27T03:22:29.189Z,99.90
2019-02-27T03:25:22.912Z,99.90
2019-02-27T03:28:40.661Z,99.90
2019-02-27T03:31:30.403Z,99.90
2019-02-27T03:34:26.381Z,99.90
2019-02-27T03:37:16.514Z,99.90
2019-02-27T03:40:14.574Z,99.90
2019-02-27T03:42:58.384Z,99.90
2019-02-27T03:45:55.761Z,99.90
2019-02-27T03:48:31.617Z,99.90
2019-02-27T03:51:25.661Z,99.90
2019-02-27T03:54:32.239Z,99.90
2019-02-27T03:57:34.328Z,99.90
2019-02-27T04:00:59.753Z,99.90
2019-02-27T04:04:01.311Z,99.90
2019-02-27T04:06:57.268Z,99.90
2019-02-27T04:09:26.291Z,99.90
2019-02-27T04:11:55.532Z,99.90
2019-02-27T04:14:28.067Z,99.90
2019-02-27T04:16:57.342Z,99.90
2019-02-27T04:19:26.375Z,99.90
2019-02-27T04:22:00.612Z,99.90
2019-02-27T04:24:25.974Z,99.90
2019-02-27T04:26:54.875Z,99.90
2019-02-27T04:29:23.808Z,99.90
2019-02-27T04:31:52.695Z,99.90
2019-02-27T04:34:21.552Z,99.90
2019-02-27T04:36:50.471Z,99.90
2019-02-27T04:39:19.369Z,99.90
2019-02-27T04:41:49.570Z,99.90
2019-02-27T04:44:19.005Z,99.90
2019-02-27T04:46:48.315Z,99.90
2019-02-27T04:49:17.184Z,99.90
2019-02-27T04:51:48.057Z,99.90
2019-02-27T04:54:16.820Z,99.90
2019-02-27T04:56:45.705Z,99.90
2019-02-27T04:59:18.414Z,99.90
2019-02-27T05:01:45.417Z,99.90
2019-02-27T05:04:14.538Z,99.90
2019-02-27T05:06:46.861Z,99.90
2019-02-27T05:09:14.108Z,99.90
2019-02-27T05:11:47.493Z,99.90
2019-02-27T05:14:14.196Z,99.90
2019-02-27T05:16:46.991Z,99.90
2019-02-27T05:19:15.281Z,99.90
2019-02-27T05:21:44.267Z,99.90
2019-02-27T05:24:13.229Z,99.90
2019-02-27T05:26:42.149Z,99.90
2019-02-27T05:29:12.549Z,99.90
2019-02-27T05:31:41.423Z,99.90
2019-02-27T05:34:13.602Z,99.90
2019-02-27T05:36:44.035Z,99.90
2019-02-27T05:39:14.957Z,99.90
2019-02-27T05:41:44.281Z,99.90
2019-02-27T05:44:13.310Z,99.90
2019-02-27T05:46:42.478Z,99.90
2019-02-27T05:49:11.468Z,99.90
2019-02-27T05:51:40.412Z,99.90
2019-02-27T05:54:09.474Z,99.90
2019-02-27T05:56:38.676Z,99.90
2019-02-27T05:59:07.693Z,99.90
2019-02-27T06:01:38.184Z,99.90
2019-02-27T06:04:08.030Z,99.90
2019-02-27T06:06:38.304Z,99.90
2019-02-27T06:09:10.081Z,99.90
2019-02-27T06:11:38.288Z,99.60
2019-02-27T06:14:07.275Z,99.00
2019-02-27T06:16:37.547Z,99.00
2019-02-27T06:19:07.043Z,98.80
2019-02-27T06:21:35.976Z,98.40
2019-02-27T06:24:05.621Z,97.70
2019-02-27T06:26:34.490Z,98.40
2019-02-27T06:29:03.735Z,97.80
2019-02-27T06:31:36.497Z,97.50
2019-02-27T06:34:03.486Z,96.80
2019-02-27T06:36:32.532Z,96.30
2019-02-27T06:39:01.424Z,96.10
2019-02-27T06:41:30.446Z,95.80
2019-02-27T06:44:01.515Z,95.70
2019-02-27T06:46:29.976Z,95.60
2019-02-27T06:48:59.080Z,95.60
2019-02-27T06:51:28.040Z,95.70
2019-02-27T06:53:57.014Z,95.40
2019-02-27T06:56:27.832Z,95.30
2019-02-27T06:58:56.784Z,95.20
2019-02-27T07:01:25.657Z,95.10
2019-02-27T07:03:54.820Z,94.90
2019-02-27T07:06:24.003Z,94.40
2019-02-27T07:08:53.019Z,94.10
2019-02-27T07:11:22.065Z,94.10
2019-02-27T07:13:51.503Z,94.00
2019-02-27T07:16:22.931Z,93.90
2019-02-27T07:18:51.475Z,93.50
2019-02-27T07:21:20.606Z,93.20
2019-02-27T07:23:49.589Z,92.80
2019-02-27T07:26:18.928Z,92.60
2019-02-27T07:28:48.776Z,92.30
2019-02-27T07:31:18.404Z,92.20
2019-02-27T07:33:47.512Z,91.90
2019-02-27T07:36:16.548Z,91.00
2019-02-27T07:38:45.713Z,90.50
2019-02-27T07:41:17.538Z,90.20
2019-02-27T07:43:45.496Z,89.90
2019-02-27T07:46:14.490Z,90.00
2019-02-27T07:48:43.446Z,90.00
2019-02-27T07:51:12.726Z,90.00
2019-02-27T07:53:41.690Z,89.60
2019-02-27T07:56:10.714Z,88.70
2019-02-27T07:58:39.616Z,88.10
2019-02-27T08:01:08.828Z,87.80
2019-02-27T08:03:37.931Z,87.30
2019-02-27T08:06:07.036Z,86.60
2019-02-27T08:08:36.019Z,86.30
2019-02-27T08:11:05.148Z,86.40
2019-02-27T08:13:34.271Z,85.90
2019-02-27T08:16:03.469Z,85.20
2019-02-27T08:18:36.624Z,85.20
2019-02-27T08:21:03.233Z,85.40
2019-02-27T08:23:32.907Z,85.10
2019-02-27T08:26:04.791Z,85.40
2019-02-27T08:28:32.643Z,85.20
2019-02-27T08:31:01.651Z,84.70
2019-02-27T08:33:30.786Z,84.30
2019-02-27T08:35:59.826Z,83.30
2019-02-27T08:38:28.656Z,82.30
2019-02-27T08:40:58.495Z,81.20
2019-02-27T08:43:27.763Z,80.50
2019-02-27T08:45:56.782Z,80.50
2019-02-27T08:48:25.833Z,79.80
2019-02-27T08:50:54.827Z,79.20
2019-02-27T08:53:26.881Z,78.40
2019-02-27T08:55:54.598Z,78.50
2019-02-27T08:58:26.743Z,77.50
2019-02-27T09:00:55.722Z,77.60
2019-02-27T09:03:24.793Z,77.70
2019-02-27T09:05:54.702Z,77.70
2019-02-27T09:08:24.025Z,77.00
2019-02-27T09:10:53.215Z,76.70
2019-02-27T09:13:22.289Z,77.00
2019-02-27T09:15:51.309Z,76.70
2019-02-27T09:18:20.265Z,75.60
2019-02-27T09:20:53.051Z,75.60
2019-02-27T09:23:20.081Z,74.80
2019-02-27T09:25:56.987Z,74.50
2019-02-27T09:28:19.909Z,74.20
2019-02-27T09:30:48.957Z,72.10
2019-02-27T09:33:20.012Z,70.90
2019-02-27T09:35:50.260Z,70.40
2019-02-27T09:38:24.093Z,70.80
2019-02-27T09:40:50.339Z,70.10
2019-02-27T09:43:19.443Z,69.40
2019-02-27T09:45:48.509Z,68.10
2019-02-27T09:48:19.278Z,67.00
2019-02-27T09:50:49.083Z,65.80
2019-02-27T09:53:18.359Z,63.00
2019-02-27T09:55:47.400Z,62.20
2019-02-27T09:58:16.368Z,61.60
2019-02-27T10:00:47.463Z,60.70
2019-02-27T10:03:19.894Z,58.50
2019-02-27T10:05:49.483Z,57.50
2019-02-27T10:08:18.559Z,57.60
2019-02-27T10:10:47.804Z,56.90
2019-02-27T10:13:17.157Z,56.50
2019-02-27T10:15:46.245Z,55.80
2019-02-27T10:18:19.068Z,56.00
2019-02-27T10:20:47.355Z,55.50
2019-02-27T10:23:16.539Z,55.30
2019-02-27T10:25:45.709Z,53.90
2019-02-27T10:28:14.825Z,53.70
2019-02-27T10:30:44.234Z,53.00
2019-02-27T10:33:13.355Z,53.10
2019-02-27T10:35:42.794Z,53.00
2019-02-27T10:38:11.789Z,53.30
2019-02-27T10:40:40.919Z,53.20
2019-02-27T10:43:21.070Z,53.00
2019-02-27T10:45:49.759Z,54.20
2019-02-27T10:48:18.861Z,53.40
2019-02-27T10:50:47.929Z,53.20
2019-02-27T10:53:17.005Z,51.50
2019-02-27T10:55:46.470Z,52.00
2019-02-27T10:58:16.619Z,52.50
2019-02-27T11:00:47.037Z,51.00
2019-02-27T11:03:16.328Z,51.20
2019-02-27T11:05:45.581Z,49.40
2019-02-27T11:08:14.571Z,49.10
2019-02-27T11:10:43.610Z,48.70
2019-02-27T11:13:12.606Z,48.00
2019-02-27T11:15:44.050Z,49.00
2019-02-27T11:18:14.442Z,48.50
2019-02-27T11:20:43.473Z,47.70
2019-02-27T11:23:12.498Z,46.90
2019-02-27T11:25:41.499Z,47.20
2019-02-27T11:28:11.004Z,46.50
2019-02-27T11:30:40.211Z,46.20
2019-02-27T11:33:09.363Z,45.90
2019-02-27T11:35:38.413Z,45.40
2019-02-27T11:38:07.615Z,45.10
2019-02-27T11:40:41.748Z,44.90
2019-02-27T11:43:07.670Z,44.60
2019-02-27T11:45:36.882Z,44.50
2019-02-27T11:48:06.078Z,43.30
2019-02-27T11:50:35.265Z,44.10
2019-02-27T11:53:04.590Z,43.50
2019-02-27T11:55:33.643Z,44.30
2019-02-27T11:58:05.439Z,44.20
2019-02-27T12:00:33.932Z,43.00
2019-02-27T12:03:02.886Z,42.50
2019-02-27T12:05:34.249Z,41.20
2019-02-27T12:08:02.898Z,41.30
2019-02-27T12:10:32.031Z,41.30
2019-02-27T12:13:01.647Z,41.10
2019-02-27T12:15:30.831Z,40.70
2019-02-27T12:18:01.322Z,40.20
2019-02-27T12:20:30.888Z,39.80
2019-02-27T12:23:00.018Z,41.10
2019-02-27T12:25:30.097Z,39.70
2019-02-27T12:28:00.106Z,39.00
2019-02-27T12:30:29.404Z,39.20
2019-02-27T12:32:58.559Z,39.80
2019-02-27T12:35:28.881Z,40.90
2019-02-27T12:37:57.825Z,39.90
2019-02-27T12:40:26.933Z,40.00
2019-02-27T12:42:56.158Z,40.10
2019-02-27T12:45:26.638Z,40.70
2019-02-27T12:47:56.026Z,40.50
2019-02-27T12:50:26.846Z,40.10
2019-02-27T12:52:56.466Z,40.20
2019-02-27T12:55:25.971Z,40.10
2019-02-27T12:57:57.540Z,40.00
2019-02-27T13:00:30.358Z,39.60
2019-02-27T13:02:59.496Z,39.90
2019-02-27T13:05:28.898Z,39.40
2019-02-27T13:07:58.359Z,38.30
2019-02-27T13:10:33.179Z,38.30
2019-02-27T13:12:58.314Z,37.20
2019-02-27T13:15:27.420Z,37.50
2019-02-27T13:17:58.034Z,36.80
2019-02-27T13:20:27.422Z,36.10
2019-02-27T13:22:56.366Z,35.90
2019-02-27T13:25:25.557Z,35.30
2019-02-27T13:27:54.624Z,35.30
2019-02-27T13:30:23.902Z,35.90
2019-02-27T13:32:54.657Z,35.00
2019-02-27T13:35:24.051Z,34.90
2019-02-27T13:37:53.156Z,34.10
2019-02-27T13:40:22.289Z,34.70
2019-02-27T13:42:53.396Z,33.70
2019-02-27T13:45:24.027Z,32.90
2019-02-27T13:47:53.106Z,33.40
2019-02-27T13:50:25.664Z,33.00
2019-02-27T13:52:53.080Z,31.90
2019-02-27T13:55:22.502Z,32.20
2019-02-27T13:57:51.594Z,32.20
2019-02-27T14:00:25.451Z,31.40
2019-02-27T14:02:54.495Z,31.10
2019-02-27T14:05:23.700Z,30.50
2019-02-27T14:07:57.258Z,31.40
2019-02-27T14:10:24.155Z,31.90
2019-02-27T14:12:53.373Z,32.00
2019-02-27T14:15:26.790Z,32.60
2019-02-27T14:17:53.116Z,32.80
2019-02-27T14:20:26.914Z,33.00
2019-02-27T14:22:55.394Z,32.90
2019-02-27T14:25:28.200Z,33.30
2019-02-27T14:27:56.255Z,33.10
2019-02-27T14:30:27.745Z,33.60
2019-02-27T14:32:57.236Z,33.30
2019-02-27T14:35:26.234Z,33.10
2019-02-27T14:37:55.429Z,34.40
2019-02-27T14:40:24.510Z,34.40
2019-02-27T14:42:55.035Z,34.60
2019-02-27T14:45:24.302Z,35.00
2019-02-27T14:47:53.353Z,34.40
2019-02-27T14:50:22.794Z,34.60
2019-02-27T14:52:51.988Z,34.70
2019-02-27T14:55:21.238Z,34.40
2019-02-27T14:57:51.346Z,34.80
2019-02-27T15:00:25.419Z,34.60
2019-02-27T15:02:55.577Z,34.20
2019-02-27T15:05:25.675Z,34.70
2019-02-27T15:07:54.997Z,34.40
2019-02-27T15:10:26.429Z,34.00
2019-02-27T15:12:55.708Z,34.60
2019-02-27T15:15:29.149Z,34.70
2019-02-27T15:17:58.242Z,34.50
2019-02-27T15:20:27.625Z,34.40
2019-02-27T15:22:57.301Z,34.70
2019-02-27T15:25:27.570Z,34.50
2019-02-27T15:27:58.815Z,34.50
2019-02-27T15:30:28.373Z,34.40
2019-02-27T15:32:57.399Z,34.50
2019-02-27T15:35:28.402Z,33.80
2019-02-27T15:37:57.855Z,34.00
2019-02-27T15:40:29.595Z,34.60
2019-02-27T15:42:57.983Z,34.30
2019-02-27T15:45:27.228Z,34.80
2019-02-27T15:47:56.463Z,34.30
2019-02-27T15:50:25.787Z,35.90
2019-02-27T15:52:54.829Z,34.70
2019-02-27T15:55:23.863Z,34.80
2019-02-27T15:57:54.073Z,35.40
2019-02-27T16:00:24.112Z,35.90
2019-02-27T16:02:53.434Z,36.10
2019-02-27T16:05:22.874Z,35.20
2019-02-27T16:07:52.047Z,35.20
2019-02-27T16:10:21.921Z,35.30
2019-02-27T16:12:51.042Z,35.90
2019-02-27T16:15:20.513Z,36.40
2019-02-27T16:17:51.574Z,35.90
2019-02-27T16:20:20.840Z,35.90
2019-02-27T16:22:53.819Z,35.70
2019-02-27T16:25:23.074Z,37.20
2019-02-27T16:27:52.269Z,36.30
2019-02-27T16:30:31.339Z,36.90
2019-02-27T16:32:57.947Z,38.20
2019-02-27T16:35:27.269Z,37.20
2019-02-27T16:37:57.783Z,37.60
2019-02-27T16:40:27.329Z,39.10
2019-02-27T16:42:56.417Z,38.20
2019-02-27T16:45:32.284Z,38.50
2019-02-27T16:47:58.697Z,39.00
2019-02-27T16:50:28.915Z,37.80
2019-02-27T16:52:58.045Z,38.00
2019-02-27T16:55:27.455Z,39.30
2019-02-27T16:57:57.619Z,39.40
2019-02-27T17:00:28.258Z,38.90
2019-02-27T17:02:58.296Z,39.70
2019-02-27T17:05:27.608Z,39.00
2019-02-27T17:08:00.957Z,39.40
2019-02-27T17:10:29.703Z,39.70
2019-02-27T17:12:59.121Z,38.80
2019-02-27T17:15:28.256Z,39.50
2019-02-27T17:17:57.333Z,39.00
2019-02-27T17:20:26.576Z,39.40
2019-02-27T17:22:55.883Z,38.90
2019-02-27T17:25:29.023Z,39.20
2019-02-27T17:27:55.839Z,39.20
2019-02-27T17:30:27.459Z,39.00
2019-02-27T17:32:57.011Z,39.40
2019-02-27T17:35:26.450Z,39.10
2019-02-27T17:37:55.829Z,39.30
2019-02-27T17:40:29.207Z,39.40
2019-02-27T17:42:58.843Z,39.70
2019-02-27T17:45:29.626Z,39.50
2019-02-27T17:47:58.863Z,39.50
2019-02-27T17:50:30.932Z,39.70
2019-02-27T17:52:58.937Z,40.30
2019-02-27T17:55:28.441Z,40.50
2019-02-27T17:57:58.387Z,40.60
2019-02-27T18:00:37.240Z,40.70
2019-02-27T18:03:06.217Z,40.70
2019-02-27T18:05:35.189Z,40.30
2019-02-27T18:08:04.467Z,40.00
2019-02-27T18:10:37.275Z,40.20
2019-02-27T18:13:04.672Z,40.00
2019-02-27T18:15:36.038Z,40.30
2019-02-27T18:18:07.470Z,40.40
2019-02-27T18:20:37.426Z,40.40
2019-02-27T18:23:06.635Z,40.40
2019-02-27T18:25:41.152Z,40.60
2019-02-27T18:28:06.634Z,40.40
2019-02-27T18:30:36.017Z,40.60
2019-02-27T18:33:04.968Z,40.30
2019-02-27T18:35:34.119Z,40.50
2019-02-27T18:38:03.107Z,40.40
2019-02-27T18:40:34.222Z,40.20
2019-02-27T18:43:03.277Z,40.30
2019-02-27T18:45:32.309Z,40.60
2019-02-27T18:48:01.466Z,40.60
2019-02-27T18:50:30.677Z,40.70
2019-02-27T18:52:59.768Z,40.50
2019-02-27T18:55:30.891Z,40.80
2019-02-27T18:57:59.680Z,40.20
2019-02-27T19:00:29.399Z,41.70
2019-02-27T19:02:58.845Z,42.00
2019-02-27T19:05:27.970Z,42.10
2019-02-27T19:07:57.376Z,42.00
2019-02-27T19:10:26.776Z,41.90
2019-02-27T19:12:55.790Z,41.60
2019-02-27T19:15:25.445Z,41.50
2019-02-27T19:17:54.585Z,41.50
2019-02-27T19:20:26.475Z,41.70
2019-02-27T19:22:55.620Z,41.60
2019-02-27T19:25:24.874Z,42.00
2019-02-27T19:27:54.231Z,42.20
2019-02-27T19:30:34.732Z,41.90
2019-02-27T19:33:04.231Z,42.00
2019-02-27T19:35:33.422Z,42.00
2019-02-27T19:38:02.504Z,42.40
2019-02-27T19:40:31.806Z,41.90
2019-02-27T19:43:01.922Z,41.50
2019-02-27T19:45:31.120Z,41.30
2019-02-27T19:48:00.284Z,41.30
2019-02-27T19:50:29.863Z,41.30
2019-02-27T19:53:05.122Z,41.10
2019-02-27T19:55:31.306Z,41.20
2019-02-27T19:58:00.494Z,41.30
2019-02-27T20:00:33.848Z,41.50
2019-02-27T20:03:02.805Z,41.70
2019-02-27T20:05:50.523Z,41.90
2019-02-27T20:08:44.395Z,41.10
2019-02-27T20:11:09.450Z,40.90
2019-02-27T20:13:39.938Z,41.00
2019-02-27T20:16:12.581Z,41.00
2019-02-27T20:18:44.287Z,40.80
2019-02-27T20:21:13.570Z,40.90
2019-02-27T20:23:43.384Z,40.50
2019-02-27T20:26:14.221Z,40.40
2019-02-27T20:28:43.992Z,40.60
2019-02-27T20:31:17.947Z,40.80
2019-02-27T20:33:46.276Z,41.50
2019-02-27T20:36:16.178Z,41.00
2019-02-27T20:38:50.691Z,41.00
2019-02-27T20:41:20.542Z,40.50
2019-02-27T20:43:49.684Z,40.60
2019-02-27T20:46:18.988Z,40.80
2019-02-27T20:48:48.157Z,40.70
2019-02-27T20:51:17.266Z,40.90
2019-02-27T20:53:46.490Z,41.40
2019-02-27T20:56:15.534Z,41.40
2019-02-27T20:58:44.747Z,41.10
2019-02-27T21:01:14.013Z,41.20
2019-02-27T21:03:43.205Z,41.10
2019-02-27T21:06:12.759Z,41.10
2019-02-27T21:08:43.464Z,41.30
2019-02-27T21:11:15.123Z,41.30
2019-02-27T21:13:49.446Z,41.30
2019-02-27T21:16:15.739Z,41.40
2019-02-27T21:18:45.565Z,41.90
2019-02-27T21:21:17.046Z,41.30
2019-02-27T21:23:46.618Z,41.80
2019-02-27T21:26:20.003Z,42.70
2019-02-27T21:28:58.265Z,42.80
2019-02-27T21:31:27.637Z,42.50
2019-02-27T21:33:54.471Z,42.10
2019-02-27T21:36:24.464Z,42.00
2019-02-27T21:38:53.871Z,41.90
2019-02-27T21:41:23.516Z,42.00
2019-02-27T21:43:52.752Z,42.10
2019-02-27T21:46:22.893Z,42.20
2019-02-27T21:48:52.310Z,42.10
2019-02-27T21:51:23.056Z,42.20
2019-02-27T21:53:52.274Z,42.30
2019-02-27T21:56:23.341Z,42.20
2019-02-27T21:58:52.319Z,42.30
2019-02-27T22:01:22.034Z,42.30
2019-02-27T22:03:53.192Z,42.40
2019-02-27T22:06:24.664Z,42.40
2019-02-27T22:08:53.420Z,42.60
2019-02-27T22:11:27.061Z,42.80
2019-02-27T22:13:56.776Z,43.60
2019-02-27T22:16:29.513Z,43.60
2019-02-27T22:18:56.663Z,43.20
2019-02-27T22:21:28.132Z,43.10
2019-02-27T22:23:57.289Z,43.10
2019-02-27T22:26:26.735Z,43.20
2019-02-27T22:28:55.750Z,43.20
2019-02-27T22:31:24.793Z,43.30
2019-02-27T22:33:56.075Z,43.40
2019-02-27T22:36:24.309Z,43.40
2019-02-27T22:38:53.248Z,43.50
2019-02-27T22:41:22.426Z,43.60
2019-02-27T22:43:53.205Z,43.60
2019-02-27T22:46:22.088Z,43.80
2019-02-27T22:48:51.524Z,43.90
2019-02-27T22:51:20.501Z,44.00
2019-02-27T22:53:49.781Z,44.00
2019-02-27T22:56:18.742Z,44.00
2019-02-27T22:58:51.677Z,44.10
2019-02-27T23:01:27.989Z,44.20
2019-02-27T23:03:59.806Z,44.30
2019-02-27T23:06:29.288Z,44.30
2019-02-27T23:08:58.606Z,44.10
2019-02-27T23:11:30.126Z,44.20
2019-02-27T23:14:00.503Z,44.10
2019-02-27T23:16:29.938Z,44.20
2019-02-27T23:18:59.885Z,44.20
2019-02-27T23:21:28.982Z,44.20
2019-02-27T23:23:57.963Z,44.20
2019-02-27T23:26:27.124Z,44.20
2019-02-27T23:28:56.095Z,44.10
2019-02-27T23:31:25.098Z,44.20
2019-02-27T23:33:54.004Z,44.30
2019-02-27T23:36:26.250Z,44.40
2019-02-27T23:38:57.756Z,44.30
2019-02-27T23:41:29.063Z,44.40
2019-02-27T23:43:57.791Z,44.50
2019-02-27T23:46:26.944Z,44.60
2019-02-27T23:48:55.810Z,44.60
2019-02-27T23:51:25.273Z,44.70
2019-02-27T23:53:54.765Z,44.70
2019-02-27T23:56:24.839Z,44.70
2019-02-27T23:58:53.895Z,44.90
